createdAt,value
2022-08-26T06:41:45.020Z,19.80
2022-08-26T06:44:14.835Z,23.70
2022-08-26T06:46:43.193Z,23.80
2022-08-26T06:49:12.879Z,23.90
2022-08-26T06:51:40.834Z,24.10
2022-08-26T06:54:08.547Z,24.30
2022-08-26T06:56:41.818Z,24.40
2022-08-26T06:59:12.353Z,24.60
2022-08-26T07:01:45.111Z,24.80
2022-08-26T07:04:15.454Z,25.00
2022-08-26T07:06:50.091Z,25.30
2022-08-26T07:09:21.424Z,25.50
2022-08-26T07:11:49.190Z,25.80
2022-08-26T07:16:48.600Z,26.10
2022-08-26T07:24:11.467Z,27.30
2022-08-26T07:26:39.074Z,27.50
2022-08-26T07:29:12.382Z,28.00
2022-08-26T07:34:10.852Z,29.20
2022-08-26T07:36:38.050Z,29.70
2022-08-26T07:41:33.527Z,30.00
2022-08-26T07:46:30.216Z,33.40
2022-08-26T07:48:58.301Z,33.50
2022-08-26T08:18:40.487Z,38.30
2022-08-26T08:21:24.002Z,38.30
2022-08-26T08:23:55.457Z,38.60
2022-08-26T08:26:24.381Z,38.70
2022-08-26T08:28:54.174Z,38.90
2022-08-26T08:31:55.780Z,39.00
2022-08-26T08:34:15.850Z,39.10
2022-08-26T08:36:46.371Z,39.00
2022-08-26T08:39:13.600Z,39.10
2022-08-26T08:42:08.992Z,39.30
2022-08-26T08:44:39.676Z,39.30
2022-08-26T08:47:17.343Z,38.70
2022-08-26T08:49:44.704Z,38.10
2022-08-26T08:52:24.706Z,37.50
2022-08-26T08:54:55.345Z,36.60
2022-08-26T08:58:02.134Z,36.70
2022-08-26T09:00:44.878Z,37.00
2022-08-26T09:03:18.097Z,37.40
2022-08-26T09:05:48.868Z,37.60
2022-08-26T09:08:24.835Z,37.60
2022-08-26T09:10:55.528Z,37.80
2022-08-26T09:13:25.280Z,37.90
2022-08-26T09:15:53.114Z,38.30
2022-08-26T09:18:27.484Z,38.90
2022-08-26T09:20:54.308Z,39.60
2022-08-26T09:23:21.072Z,40.10
2022-08-26T09:25:51.284Z,40.50
2022-08-26T09:28:21.710Z,40.70
2022-08-26T09:31:11.528Z,40.80
2022-08-26T09:33:40.108Z,40.70
2022-08-26T09:36:31.414Z,40.80
2022-08-26T09:38:58.498Z,41.00
2022-08-26T09:41:31.850Z,41.30
2022-08-26T09:44:04.510Z,41.60
2022-08-26T09:46:32.230Z,41.60
2022-08-26T09:49:27.074Z,41.80
2022-08-26T09:52:07.358Z,41.80
2022-08-26T09:54:34.942Z,42.10
2022-08-26T09:57:16.641Z,42.30
2022-08-26T09:59:44.039Z,41.60
2022-08-26T10:02:31.864Z,40.60
2022-08-26T10:05:09.226Z,39.60
2022-08-26T10:07:47.068Z,39.40
2022-08-26T10:10:35.277Z,39.40
2022-08-26T10:13:12.410Z,39.60
2022-08-26T10:16:01.345Z,39.30
2022-08-26T10:18:41.935Z,38.90
2022-08-26T10:21:23.612Z,38.30
2022-08-26T10:29:14.836Z,37.50
2022-08-26T10:50:22.259Z,36.80
2022-08-26T10:55:54.640Z,33.30
2022-08-26T11:01:22.897Z,33.00
2022-08-26T11:03:50.066Z,33.10
2022-08-26T11:06:19.497Z,33.10
2022-08-26T11:08:51.165Z,33.20
2022-08-26T11:11:41.695Z,33.20
2022-08-26T11:14:28.547Z,33.20
2022-08-26T11:16:58.665Z,32.90
2022-08-26T11:19:59.732Z,32.90
2022-08-26T11:22:35.514Z,32.90
2022-08-26T11:25:09.562Z,32.90
2022-08-26T11:30:18.474Z,32.70
2022-08-26T11:32:52.211Z,32.60
2022-08-26T11:35:21.836Z,32.40
2022-08-26T11:37:56.618Z,32.40
2022-08-26T11:40:35.345Z,32.30
2022-08-26T11:43:10.088Z,32.20
2022-08-26T11:45:45.628Z,32.10
2022-08-26T11:48:36.613Z,32.10
2022-08-26T11:51:21.332Z,32.00
2022-08-26T11:53:49.127Z,31.90
2022-08-26T11:56:36.652Z,31.90
2022-08-26T11:59:10.022Z,31.80
2022-08-26T12:01:40.334Z,31.70
2022-08-26T12:06:45.232Z,31.50
2022-08-26T12:09:22.062Z,31.40
2022-08-26T12:11:48.916Z,31.40
2022-08-26T12:14:24.528Z,31.30
2022-08-26T12:16:54.073Z,31.30
2022-08-26T12:19:32.659Z,31.30
2022-08-26T12:22:07.444Z,31.30
2022-08-26T12:24:35.126Z,31.30
2022-08-26T12:27:27.268Z,31.30
2022-08-26T12:30:08.366Z,31.40
2022-08-26T12:32:37.278Z,31.50
2022-08-26T12:35:24.034Z,31.50
2022-08-26T12:37:53.896Z,31.40
2022-08-26T12:40:26.724Z,31.50
2022-08-26T12:42:54.120Z,31.50
2022-08-26T12:45:36.722Z,31.50
2022-08-26T12:48:28.651Z,31.50
2022-08-26T12:50:56.188Z,31.50
2022-08-26T12:53:24.264Z,31.50
2022-08-26T12:55:55.500Z,31.40
2022-08-26T12:58:24.315Z,31.30
2022-08-26T13:00:52.436Z,31.30
2022-08-26T13:03:43.490Z,31.20
2022-08-26T13:06:15.448Z,31.10
2022-08-26T13:08:48.194Z,31.20
2022-08-26T13:11:20.098Z,31.20
2022-08-26T13:14:00.064Z,31.20
2022-08-26T13:16:27.146Z,31.20
2022-08-26T13:19:03.386Z,31.20
2022-08-26T13:21:41.150Z,31.20
2022-08-26T13:24:11.784Z,31.30
2022-08-26T13:26:42.747Z,31.20
2022-08-26T13:29:10.664Z,31.20
2022-08-26T13:31:40.089Z,31.20
2022-08-26T13:34:09.263Z,31.10
2022-08-26T13:36:36.127Z,30.90
2022-08-26T13:39:03.267Z,30.90
2022-08-26T13:41:32.075Z,30.90
2022-08-26T13:43:59.633Z,30.80
2022-08-26T13:46:28.141Z,30.90
2022-08-26T13:48:55.995Z,30.90
2022-08-26T13:51:23.959Z,30.90
2022-08-26T13:53:51.561Z,30.80
2022-08-26T13:56:18.878Z,30.60
2022-08-26T13:58:46.630Z,30.40
2022-08-26T14:01:15.707Z,30.10
2022-08-26T14:03:43.634Z,30.10
2022-08-26T14:06:10.977Z,30.00
2022-08-26T14:08:39.521Z,30.00
2022-08-26T14:11:07.035Z,30.00
2022-08-26T14:13:34.532Z,30.00
2022-08-26T14:16:03.876Z,29.90
2022-08-26T14:18:41.143Z,29.70
2022-08-26T14:21:11.302Z,29.60
2022-08-26T14:23:38.207Z,29.60
2022-08-26T14:26:08.269Z,29.50
2022-08-26T14:28:36.225Z,29.40
2022-08-26T14:31:04.205Z,29.10
2022-08-26T14:33:33.930Z,29.10
2022-08-26T14:36:32.899Z,29.00
2022-08-26T14:39:10.326Z,29.00
2022-08-26T14:41:43.768Z,28.80
2022-08-26T14:44:13.807Z,28.70
2022-08-26T14:46:51.176Z,28.60
2022-08-26T14:49:18.856Z,28.60
2022-08-26T14:51:45.990Z,28.60
2022-08-26T14:54:14.027Z,28.70
2022-08-26T14:56:53.970Z,28.70
2022-08-26T14:59:25.138Z,28.70
2022-08-26T15:01:53.131Z,28.70
2022-08-26T15:04:20.455Z,28.60
2022-08-26T15:06:47.797Z,28.50
2022-08-26T15:09:15.760Z,28.50
2022-08-26T15:11:47.632Z,28.40
2022-08-26T15:14:19.574Z,28.40
2022-08-26T15:16:52.532Z,28.20
2022-08-26T15:19:20.291Z,28.20
2022-08-26T15:21:47.502Z,28.10
2022-08-26T15:24:16.876Z,28.10
2022-08-26T15:26:44.652Z,28.10
2022-08-26T15:29:11.533Z,28.10
2022-08-26T15:31:38.680Z,28.10
2022-08-26T15:34:10.998Z,28.10
2022-08-26T15:36:40.763Z,28.10
2022-08-26T15:39:07.954Z,28.10
2022-08-26T15:56:29.158Z,28.00
2022-08-26T15:58:56.709Z,27.70
2022-08-26T16:01:27.604Z,27.60
2022-08-26T16:03:56.210Z,27.60
2022-08-26T16:06:28.200Z,27.50
2022-08-26T16:08:56.463Z,27.50
2022-08-26T16:11:24.369Z,27.50
2022-08-26T16:13:51.743Z,27.50
2022-08-26T16:16:19.058Z,27.40
2022-08-26T16:18:45.969Z,27.30
2022-08-26T16:21:17.936Z,27.20
2022-08-26T16:23:45.247Z,27.20
2022-08-26T16:26:19.069Z,27.20
2022-08-26T16:28:46.435Z,27.10
2022-08-26T16:31:14.333Z,27.10
2022-08-26T16:33:41.323Z,27.10
2022-08-26T16:36:09.780Z,27.00
2022-08-26T16:38:38.491Z,26.90
2022-08-26T16:41:06.235Z,26.90
2022-08-26T16:43:33.261Z,26.80
2022-08-26T16:46:00.055Z,26.80
2022-08-26T16:48:27.850Z,26.60
2022-08-26T16:50:55.628Z,26.60
2022-08-26T16:53:22.780Z,26.50
2022-08-26T16:55:51.042Z,26.50
2022-08-26T16:58:20.399Z,26.40
2022-08-26T17:00:49.275Z,26.30
2022-08-26T17:03:15.994Z,26.30
2022-08-26T17:05:42.771Z,26.20
2022-08-26T17:08:09.729Z,26.20
2022-08-26T17:10:36.548Z,26.10
2022-08-26T17:13:03.503Z,26.10
2022-08-26T17:15:30.402Z,26.00
2022-08-26T17:17:57.309Z,26.00
2022-08-26T17:20:24.953Z,25.90
2022-08-26T17:22:54.413Z,25.90
2022-08-26T17:25:31.935Z,25.90
2022-08-26T17:27:59.568Z,25.90
2022-08-26T17:30:26.547Z,25.90
2022-08-26T17:32:54.464Z,25.80
2022-08-26T17:35:21.727Z,25.80
2022-08-26T17:37:48.911Z,25.80
2022-08-26T17:40:25.895Z,25.70
2022-08-26T17:42:53.927Z,25.70
2022-08-26T17:45:21.700Z,25.70
2022-08-26T17:47:48.743Z,25.60
2022-08-26T17:50:17.594Z,25.60
2022-08-26T17:52:45.787Z,25.50
2022-08-26T17:55:16.825Z,25.50
2022-08-26T17:57:44.037Z,25.50
2022-08-26T18:00:23.579Z,25.50
2022-08-26T18:02:50.298Z,25.40
2022-08-26T18:05:17.733Z,25.40
2022-08-26T18:07:44.907Z,25.40
2022-08-26T18:10:13.954Z,25.40
2022-08-26T18:12:41.573Z,25.30
2022-08-26T18:15:09.545Z,25.30
2022-08-26T18:17:37.275Z,25.30
2022-08-26T18:20:04.361Z,25.30
2022-08-26T18:22:31.140Z,25.30
2022-08-26T18:24:59.405Z,25.20
2022-08-26T18:27:26.476Z,25.10
2022-08-26T18:29:53.191Z,25.20
2022-08-26T18:32:19.951Z,25.10
2022-08-26T18:34:46.683Z,25.20
2022-08-26T18:39:45.634Z,25.10
2022-08-26T18:42:12.892Z,25.10
2022-08-26T18:44:39.787Z,25.00
2022-08-26T18:47:06.813Z,25.00
2022-08-26T18:49:33.536Z,25.00
2022-08-26T18:52:00.349Z,24.90
2022-08-26T18:54:27.238Z,24.90
2022-08-26T18:56:53.949Z,24.80
2022-08-26T18:59:28.421Z,24.80
2022-08-26T19:01:57.843Z,24.80
2022-08-26T19:04:24.828Z,24.80
2022-08-26T19:06:52.557Z,24.80
2022-08-26T19:09:20.944Z,24.80
2022-08-26T19:11:48.813Z,24.70
2022-08-26T19:14:17.188Z,24.70
2022-08-26T19:16:49.080Z,24.70
2022-08-26T19:19:16.264Z,24.70
2022-08-26T19:21:43.010Z,24.70
2022-08-26T19:24:15.484Z,24.70
2022-08-26T19:26:57.468Z,24.70
2022-08-26T19:29:28.751Z,24.60
2022-08-26T19:31:56.422Z,24.60
2022-08-26T19:34:24.086Z,24.60
2022-08-26T19:36:54.676Z,24.60
2022-08-26T19:39:21.829Z,24.50
2022-08-26T19:41:48.656Z,24.50
2022-08-26T19:44:39.164Z,24.50
2022-08-26T19:47:07.543Z,24.50
2022-08-26T19:49:34.902Z,24.50
2022-08-26T19:52:02.997Z,24.40
2022-08-26T19:54:29.920Z,24.40
2022-08-26T19:56:57.348Z,24.40
2022-08-26T19:59:24.287Z,24.40
2022-08-26T20:02:00.584Z,24.30
2022-08-26T20:04:29.662Z,24.30
2022-08-26T20:06:58.757Z,24.20
2022-08-26T20:09:31.514Z,24.20
2022-08-26T20:11:58.784Z,24.20
2022-08-26T20:14:27.041Z,24.20
2022-08-26T20:16:54.084Z,24.20
2022-08-26T20:19:39.375Z,24.20
2022-08-26T20:22:06.388Z,24.20
2022-08-26T20:24:34.261Z,24.20
2022-08-26T20:27:05.486Z,24.20
2022-08-26T20:29:35.056Z,24.10
2022-08-26T20:32:02.599Z,24.10
2022-08-26T20:34:30.083Z,24.10
2022-08-26T20:36:56.868Z,24.00
2022-08-26T20:39:23.667Z,24.00
2022-08-26T20:41:50.791Z,24.00
2022-08-26T20:44:17.828Z,23.90
2022-08-26T20:46:45.052Z,23.90
2022-08-26T20:49:13.152Z,23.90
2022-08-26T20:51:40.410Z,23.90
2022-08-26T20:54:07.364Z,23.80
2022-08-26T20:56:34.465Z,23.70
2022-08-26T20:59:01.769Z,23.70
2022-08-26T21:01:34.454Z,23.70
2022-08-26T21:04:04.343Z,23.60
2022-08-26T21:06:32.615Z,23.60
2022-08-26T21:09:01.381Z,23.60
2022-08-26T21:11:29.193Z,23.60
2022-08-26T21:14:16.182Z,23.50
2022-08-26T21:16:43.970Z,23.50
2022-08-26T21:19:12.848Z,23.50
2022-08-26T21:21:40.809Z,23.50
2022-08-26T21:24:07.875Z,23.40
2022-08-26T21:26:34.767Z,23.50
2022-08-26T21:29:02.470Z,23.40
2022-08-26T21:31:31.736Z,23.40
2022-08-26T21:33:59.262Z,23.40
2022-08-26T21:36:26.558Z,23.40
2022-08-26T21:38:56.728Z,23.40
2022-08-26T21:41:24.184Z,23.30
2022-08-26T21:43:53.873Z,23.30
2022-08-26T21:46:23.207Z,23.30
2022-08-26T21:48:55.729Z,23.30
2022-08-26T21:51:24.707Z,23.40
2022-08-26T21:53:54.799Z,23.40
2022-08-26T21:56:26.175Z,23.50
2022-08-26T21:58:54.946Z,23.40
2022-08-26T22:01:23.655Z,23.60
2022-08-26T22:03:52.567Z,23.60
2022-08-26T22:06:22.282Z,23.60
2022-08-26T22:08:49.218Z,23.60
2022-08-26T22:11:16.328Z,23.70
2022-08-26T22:13:43.581Z,23.70
2022-08-26T22:16:11.324Z,23.60
2022-08-26T22:18:39.087Z,23.70
2022-08-26T22:21:10.359Z,23.70
2022-08-26T22:23:38.238Z,23.60
2022-08-26T22:26:06.913Z,23.70
2022-08-26T22:28:33.867Z,23.60
2022-08-26T22:31:01.799Z,23.60
2022-08-26T22:33:29.315Z,23.70
2022-08-26T22:35:56.278Z,23.70
2022-08-26T22:38:23.864Z,23.60
2022-08-26T22:40:56.865Z,23.60
2022-08-26T22:43:25.067Z,23.60
2022-08-26T22:45:53.067Z,23.60
2022-08-26T22:48:22.810Z,23.60
2022-08-26T22:50:50.996Z,23.60
2022-08-26T22:53:18.421Z,23.70
2022-08-26T22:55:45.697Z,23.70
2022-08-26T22:58:15.579Z,23.60
2022-08-26T23:00:43.570Z,23.60
2022-08-26T23:03:12.043Z,23.60
2022-08-26T23:05:40.167Z,23.50
2022-08-26T23:08:07.686Z,23.60
2022-08-26T23:10:36.744Z,23.60
2022-08-26T23:13:08.119Z,23.40
2022-08-26T23:15:35.837Z,23.40
2022-08-26T23:18:03.630Z,23.40
2022-08-26T23:20:31.285Z,23.40
2022-08-26T23:22:58.841Z,23.40
2022-08-26T23:25:26.005Z,23.40
2022-08-26T23:27:52.954Z,23.30
2022-08-26T23:30:23.648Z,23.30
2022-08-26T23:32:51.040Z,23.30
2022-08-26T23:35:20.492Z,23.20
2022-08-26T23:37:53.557Z,23.30
2022-08-26T23:40:25.221Z,23.20
2022-08-26T23:42:56.967Z,23.10
2022-08-26T23:45:24.083Z,23.10
2022-08-26T23:47:51.115Z,23.10
2022-08-26T23:50:20.583Z,23.10
2022-08-26T23:53:05.865Z,23.10
2022-08-26T23:55:39.434Z,23.10
2022-08-26T23:58:06.941Z,23.00
